Flugplatz Walldorf

Für EDGX sind keine METAR/TAF Berichte vorhanden.
Es werden die Flugwettermeldungen vom Flugplatz Mannheim-City in 21 km Entfernung angezeigt.

Bericht für EDFM

vom 29.09. um 14:20 UTC

variable Windrichtung mit 2 kt

Sichtweite 10 km oder mehr

gute Sicht, keine Wolken < 5000 ft, keine CB, keine Wettererscheinungen (CAVOK)

Temperatur 14.0°C

Taupunkt 7.0°C

Luftfeuchtigkeit 63%

Luftdruck 1003 hPa

EDFM 291420Z VRB02KT CAVOK 14/07 Q1003

Prognose für EDFM

vom 29.09. um 14:00 UTC

Zwischen 15:00 UTC und 21:00 UTC

variable Windrichtung mit 3 kt

Sichtweite 10 km oder mehr

aufgelockert bewölkt in 3000 ft


Zwischen 15:00 UTC und 16:00 UTC zeitweise mit einer Wahrscheinlichkeit von 30%

Regenschauer

aufgelockert bewölkt in 2500 ft

TAF EDFM 291400Z 2915/2921 VRB03KT 9999 SCT030 PROB30 TEMPO 2915/2916 SHRA SCT025TCU
Impressum